sensor_id;sensor_type;location;lat;lon;timestamp;P1;durP1;ratioP1;P2;durP2;ratioP2
51836;SDS011;38941;53.254;6.600;2023-02-11T00:00:26;17.45;;;3.92;;
51836;SDS011;38941;53.254;6.600;2023-02-11T00:02:29;18.23;;;4.25;;
51836;SDS011;38941;53.254;6.600;2023-02-11T00:04:31;12.40;;;3.25;;
51836;SDS011;38941;53.254;6.600;2023-02-11T00:06:32;18.90;;;3.50;;
51836;SDS011;38941;53.254;6.600;2023-02-11T00:08:34;16.60;;;3.75;;
51836;SDS011;38941;53.254;6.600;2023-02-11T00:10:35;21.95;;;4.28;;
51836;SDS011;38941;53.254;6.600;2023-02-11T00:12:36;28.30;;;4.95;;
51836;SDS011;38941;53.254;6.600;2023-02-11T00:14:37;16.02;;;4.85;;
51836;SDS011;38941;53.254;6.600;2023-02-11T00:16:38;11.50;;;3.75;;
51836;SDS011;38941;53.254;6.600;2023-02-11T00:18:39;17.77;;;4.88;;
51836;SDS011;38941;53.254;6.600;2023-02-11T00:20:40;19.33;;;4.60;;
51836;SDS011;38941;53.254;6.600;2023-02-11T00:22:41;24.80;;;3.60;;
51836;SDS011;38941;53.254;6.600;2023-02-11T00:24:42;16.83;;;3.90;;
51836;SDS011;38941;53.254;6.600;2023-02-11T00:26:43;15.65;;;4.10;;
51836;SDS011;38941;53.254;6.600;2023-02-11T00:28:44;20.48;;;5.43;;
51836;SDS011;38941;53.254;6.600;2023-02-11T00:30:52;15.93;;;4.18;;
51836;SDS011;38941;53.254;6.600;2023-02-11T00:32:54;23.70;;;4.07;;
51836;SDS011;38941;53.254;6.600;2023-02-11T00:34:55;26.77;;;4.45;;
51836;SDS011;38941;53.254;6.600;2023-02-11T00:36:57;21.27;;;4.22;;
51836;SDS011;38941;53.254;6.600;2023-02-11T00:38:59;24.73;;;3.58;;
51836;SDS011;38941;53.254;6.600;2023-02-11T00:41:01;15.25;;;4.38;;
51836;SDS011;38941;53.254;6.600;2023-02-11T00:43:02;15.85;;;4.03;;
51836;SDS011;38941;53.254;6.600;2023-02-11T00:45:03;26.80;;;3.95;;
51836;SDS011;38941;53.254;6.600;2023-02-11T00:47:04;18.05;;;4.75;;
51836;SDS011;38941;53.254;6.600;2023-02-11T00:49:05;16.83;;;4.20;;
51836;SDS011;38941;53.254;6.600;2023-02-11T00:51:06;8.43;;;2.50;;
51836;SDS011;38941;53.254;6.600;2023-02-11T00:53:07;28.52;;;5.20;;
51836;SDS011;38941;53.254;6.600;2023-02-11T00:55:08;20.90;;;5.15;;
51836;SDS011;38941;53.254;6.600;2023-02-11T00:57:09;31.27;;;4.82;;
51836;SDS011;38941;53.254;6.600;2023-02-11T00:59:10;22.48;;;4.53;;
51836;SDS011;38941;53.254;6.600;2023-02-11T01:01:11;20.95;;;5.50;;
51836;SDS011;38941;53.254;6.600;2023-02-11T01:03:13;22.83;;;5.03;;
51836;SDS011;38941;53.254;6.600;2023-02-11T01:05:14;14.98;;;4.00;;
51836;SDS011;38941;53.254;6.600;2023-02-11T01:07:14;20.80;;;4.97;;
51836;SDS011;38941;53.254;6.600;2023-02-11T01:09:15;23.55;;;4.80;;
51836;SDS011;38941;53.254;6.600;2023-02-11T01:11:17;16.48;;;3.75;;
51836;SDS011;38941;53.254;6.600;2023-02-11T01:13:21;19.13;;;4.68;;
51836;SDS011;38941;53.254;6.600;2023-02-11T01:15:22;26.85;;;5.55;;
51836;SDS011;38941;53.254;6.600;2023-02-11T01:17:23;21.48;;;3.80;;
51836;SDS011;38941;53.254;6.600;2023-02-11T01:19:24;17.10;;;4.80;;
51836;SDS011;38941;53.254;6.600;2023-02-11T01:21:25;20.42;;;3.95;;
51836;SDS011;38941;53.254;6.600;2023-02-11T01:23:26;22.30;;;4.82;;
51836;SDS011;38941;53.254;6.600;2023-02-11T01:25:27;15.00;;;4.22;;
51836;SDS011;38941;53.254;6.600;2023-02-11T01:27:28;15.43;;;4.03;;
51836;SDS011;38941;53.254;6.600;2023-02-11T01:29:31;13.65;;;4.43;;
51836;SDS011;38941;53.254;6.600;2023-02-11T01:31:31;13.75;;;4.47;;
51836;SDS011;38941;53.254;6.600;2023-02-11T01:33:33;20.33;;;4.70;;
51836;SDS011;38941;53.254;6.600;2023-02-11T01:35:34;19.88;;;4.15;;
51836;SDS011;38941;53.254;6.600;2023-02-11T01:37:37;17.95;;;5.28;;
51836;SDS011;38941;53.254;6.600;2023-02-11T01:39:38;24.52;;;5.85;;
51836;SDS011;38941;53.254;6.600;2023-02-11T01:41:39;28.23;;;6.25;;
51836;SDS011;38941;53.254;6.600;2023-02-11T01:43:42;17.52;;;5.10;;
51836;SDS011;38941;53.254;6.600;2023-02-11T01:47:46;19.95;;;5.15;;
51836;SDS011;38941;53.254;6.600;2023-02-11T01:49:51;18.30;;;4.47;;
51836;SDS011;38941;53.254;6.600;2023-02-11T01:54:05;18.08;;;4.72;;
51836;SDS011;38941;53.254;6.600;2023-02-11T01:56:29;23.50;;;4.40;;
51836;SDS011;38941;53.254;6.600;2023-02-11T01:58:50;17.88;;;4.78;;
51836;SDS011;38941;53.254;6.600;2023-02-11T02:00:54;23.20;;;5.93;;
51836;SDS011;38941;53.254;6.600;2023-02-11T02:07:31;24.08;;;5.63;;
51836;SDS011;38941;53.254;6.600;2023-02-11T02:09:57;17.75;;;5.13;;
51836;SDS011;38941;53.254;6.600;2023-02-11T02:12:02;17.63;;;6.43;;
51836;SDS011;38941;53.254;6.600;2023-02-11T02:14:03;25.60;;;7.30;;
51836;SDS011;38941;53.254;6.600;2023-02-11T02:16:04;25.70;;;6.53;;
51836;SDS011;38941;53.254;6.600;2023-02-11T02:22:32;22.10;;;6.25;;
51836;SDS011;38941;53.254;6.600;2023-02-11T02:27:41;25.67;;;6.50;;
51836;SDS011;38941;53.254;6.600;2023-02-11T02:33:24;28.48;;;6.50;;
51836;SDS011;38941;53.254;6.600;2023-02-11T02:37:20;16.70;;;5.63;;
51836;SDS011;38941;53.254;6.600;2023-02-11T02:39:32;19.98;;;5.28;;
51836;SDS011;38941;53.254;6.600;2023-02-11T02:41:35;21.38;;;6.65;;
51836;SDS011;38941;53.254;6.600;2023-02-11T02:43:44;29.83;;;6.38;;
51836;SDS011;38941;53.254;6.600;2023-02-11T02:45:47;18.77;;;5.35;;
51836;SDS011;38941;53.254;6.600;2023-02-11T02:47:48;24.52;;;6.63;;
51836;SDS011;38941;53.254;6.600;2023-02-11T02:49:49;13.10;;;4.93;;
51836;SDS011;38941;53.254;6.600;2023-02-11T02:51:54;23.63;;;6.80;;
51836;SDS011;38941;53.254;6.600;2023-02-11T03:03:42;20.63;;;6.60;;
51836;SDS011;38941;53.254;6.600;2023-02-11T03:06:04;19.27;;;7.43;;
51836;SDS011;38941;53.254;6.600;2023-02-11T03:10:27;21.95;;;5.78;;
51836;SDS011;38941;53.254;6.600;2023-02-11T03:12:31;22.70;;;7.22;;
51836;SDS011;38941;53.254;6.600;2023-02-11T03:14:35;19.27;;;6.40;;
51836;SDS011;38941;53.254;6.600;2023-02-11T03:16:36;22.70;;;7.80;;
51836;SDS011;38941;53.254;6.600;2023-02-11T03:18:39;19.88;;;6.50;;
51836;SDS011;38941;53.254;6.600;2023-02-11T03:20:43;23.67;;;7.43;;
51836;SDS011;38941;53.254;6.600;2023-02-11T03:22:49;22.17;;;8.07;;
51836;SDS011;38941;53.254;6.600;2023-02-11T03:24:56;33.55;;;8.57;;
51836;SDS011;38941;53.254;6.600;2023-02-11T03:26:58;18.85;;;7.00;;
51836;SDS011;38941;53.254;6.600;2023-02-11T03:31:30;20.63;;;7.88;;
51836;SDS011;38941;53.254;6.600;2023-02-11T03:33:45;25.23;;;7.43;;
51836;SDS011;38941;53.254;6.600;2023-02-11T03:35:57;22.02;;;7.03;;
51836;SDS011;38941;53.254;6.600;2023-02-11T03:38:04;22.75;;;8.18;;
51836;SDS011;38941;53.254;6.600;2023-02-11T03:40:15;21.10;;;6.35;;
51836;SDS011;38941;53.254;6.600;2023-02-11T03:42:20;23.85;;;8.05;;
51836;SDS011;38941;53.254;6.600;2023-02-11T03:44:26;25.35;;;8.07;;
51836;SDS011;38941;53.254;6.600;2023-02-11T03:46:33;19.63;;;7.68;;
51836;SDS011;38941;53.254;6.600;2023-02-11T03:48:39;28.35;;;7.93;;
51836;SDS011;38941;53.254;6.600;2023-02-11T03:50:44;22.77;;;8.73;;
51836;SDS011;38941;53.254;6.600;2023-02-11T03:52:48;27.40;;;8.23;;
51836;SDS011;38941;53.254;6.600;2023-02-11T03:54:52;21.55;;;8.25;;
51836;SDS011;38941;53.254;6.600;2023-02-11T03:56:57;30.30;;;9.63;;
51836;SDS011;38941;53.254;6.600;2023-02-11T03:58:59;18.13;;;7.82;;
51836;SDS011;38941;53.254;6.600;2023-02-11T04:01:00;19.08;;;7.60;;
51836;SDS011;38941;53.254;6.600;2023-02-11T04:03:02;24.35;;;8.75;;
51836;SDS011;38941;53.254;6.600;2023-02-11T04:05:04;22.60;;;7.75;;
51836;SDS011;38941;53.254;6.600;2023-02-11T04:07:06;24.40;;;8.40;;
51836;SDS011;38941;53.254;6.600;2023-02-11T04:09:06;31.10;;;8.88;;
51836;SDS011;38941;53.254;6.600;2023-02-11T04:11:07;19.13;;;8.80;;
51836;SDS011;38941;53.254;6.600;2023-02-11T04:13:08;23.15;;;8.65;;
51836;SDS011;38941;53.254;6.600;2023-02-11T04:15:09;23.13;;;8.98;;
51836;SDS011;38941;53.254;6.600;2023-02-11T04:17:10;24.90;;;8.95;;
51836;SDS011;38941;53.254;6.600;2023-02-11T04:19:11;22.33;;;9.18;;
51836;SDS011;38941;53.254;6.600;2023-02-11T04:21:12;24.25;;;8.30;;
51836;SDS011;38941;53.254;6.600;2023-02-11T04:23:14;21.27;;;9.18;;
51836;SDS011;38941;53.254;6.600;2023-02-11T04:25:14;25.90;;;9.20;;
51836;SDS011;38941;53.254;6.600;2023-02-11T04:27:16;28.17;;;8.80;;
51836;SDS011;38941;53.254;6.600;2023-02-11T04:29:17;20.63;;;8.60;;
51836;SDS011;38941;53.254;6.600;2023-02-11T04:31:18;26.67;;;9.88;;
51836;SDS011;38941;53.254;6.600;2023-02-11T04:33:19;27.10;;;11.05;;
51836;SDS011;38941;53.254;6.600;2023-02-11T04:35:20;27.95;;;9.93;;
51836;SDS011;38941;53.254;6.600;2023-02-11T04:37:21;25.45;;;9.95;;
51836;SDS011;38941;53.254;6.600;2023-02-11T04:39:21;22.70;;;9.68;;
51836;SDS011;38941;53.254;6.600;2023-02-11T04:41:22;24.92;;;10.10;;
51836;SDS011;38941;53.254;6.600;2023-02-11T04:43:23;23.40;;;8.77;;
51836;SDS011;38941;53.254;6.600;2023-02-11T04:45:24;28.30;;;9.15;;
51836;SDS011;38941;53.254;6.600;2023-02-11T04:47:24;26.60;;;9.88;;
51836;SDS011;38941;53.254;6.600;2023-02-11T04:49:25;25.00;;;9.45;;
51836;SDS011;38941;53.254;6.600;2023-02-11T04:51:26;23.38;;;10.32;;
51836;SDS011;38941;53.254;6.600;2023-02-11T04:53:27;32.65;;;10.02;;
51836;SDS011;38941;53.254;6.600;2023-02-11T04:55:27;22.65;;;10.38;;
51836;SDS011;38941;53.254;6.600;2023-02-11T04:57:28;25.65;;;9.15;;
51836;SDS011;38941;53.254;6.600;2023-02-11T04:59:29;27.45;;;10.05;;
51836;SDS011;38941;53.254;6.600;2023-02-11T05:01:30;19.73;;;8.93;;
51836;SDS011;38941;53.254;6.600;2023-02-11T05:03:30;26.80;;;9.32;;
51836;SDS011;38941;53.254;6.600;2023-02-11T05:05:31;25.50;;;9.43;;
51836;SDS011;38941;53.254;6.600;2023-02-11T05:07:32;27.30;;;12.05;;
51836;SDS011;38941;53.254;6.600;2023-02-11T05:09:33;21.55;;;9.82;;
51836;SDS011;38941;53.254;6.600;2023-02-11T05:11:34;32.03;;;12.18;;
51836;SDS011;38941;53.254;6.600;2023-02-11T05:13:35;23.83;;;10.35;;
51836;SDS011;38941;53.254;6.600;2023-02-11T05:15:36;29.70;;;10.35;;
51836;SDS011;38941;53.254;6.600;2023-02-11T05:17:37;30.98;;;10.68;;
51836;SDS011;38941;53.254;6.600;2023-02-11T05:19:37;20.38;;;8.88;;
51836;SDS011;38941;53.254;6.600;2023-02-11T05:21:39;27.50;;;8.85;;
51836;SDS011;38941;53.254;6.600;2023-02-11T05:23:41;26.60;;;10.45;;
51836;SDS011;38941;53.254;6.600;2023-02-11T05:25:42;21.27;;;9.73;;
51836;SDS011;38941;53.254;6.600;2023-02-11T05:27:42;29.00;;;9.20;;
51836;SDS011;38941;53.254;6.600;2023-02-11T05:29:43;24.20;;;9.38;;
51836;SDS011;38941;53.254;6.600;2023-02-11T05:31:44;25.50;;;9.50;;
51836;SDS011;38941;53.254;6.600;2023-02-11T05:33:45;22.25;;;8.60;;
51836;SDS011;38941;53.254;6.600;2023-02-11T05:35:45;23.63;;;8.88;;
51836;SDS011;38941;53.254;6.600;2023-02-11T05:37:46;29.92;;;11.13;;
51836;SDS011;38941;53.254;6.600;2023-02-11T05:39:47;22.65;;;9.77;;
51836;SDS011;38941;53.254;6.600;2023-02-11T05:41:48;21.83;;;8.85;;
51836;SDS011;38941;53.254;6.600;2023-02-11T05:43:48;27.73;;;9.48;;
51836;SDS011;38941;53.254;6.600;2023-02-11T05:45:52;30.13;;;9.07;;
51836;SDS011;38941;53.254;6.600;2023-02-11T05:47:53;24.33;;;9.82;;
51836;SDS011;38941;53.254;6.600;2023-02-11T05:49:54;30.45;;;9.73;;
51836;SDS011;38941;53.254;6.600;2023-02-11T05:51:55;26.83;;;9.32;;
51836;SDS011;38941;53.254;6.600;2023-02-11T05:53:56;20.88;;;9.30;;
51836;SDS011;38941;53.254;6.600;2023-02-11T05:55:57;19.27;;;8.48;;
51836;SDS011;38941;53.254;6.600;2023-02-11T05:57:58;21.15;;;8.93;;
51836;SDS011;38941;53.254;6.600;2023-02-11T05:59:58;24.27;;;9.18;;
51836;SDS011;38941;53.254;6.600;2023-02-11T06:01:59;20.73;;;8.63;;
51836;SDS011;38941;53.254;6.600;2023-02-11T06:04:01;31.25;;;9.10;;
51836;SDS011;38941;53.254;6.600;2023-02-11T06:06:01;21.83;;;9.15;;
51836;SDS011;38941;53.254;6.600;2023-02-11T06:08:02;17.38;;;7.75;;
51836;SDS011;38941;53.254;6.600;2023-02-11T06:10:03;17.73;;;7.53;;
51836;SDS011;38941;53.254;6.600;2023-02-11T06:12:04;23.98;;;8.73;;
51836;SDS011;38941;53.254;6.600;2023-02-11T06:14:05;25.70;;;10.10;;
51836;SDS011;38941;53.254;6.600;2023-02-11T06:16:06;24.50;;;7.95;;
51836;SDS011;38941;53.254;6.600;2023-02-11T06:18:07;20.73;;;8.18;;
51836;SDS011;38941;53.254;6.600;2023-02-11T06:20:08;18.95;;;7.22;;
51836;SDS011;38941;53.254;6.600;2023-02-11T06:22:09;23.77;;;7.95;;
51836;SDS011;38941;53.254;6.600;2023-02-11T06:24:11;18.90;;;7.38;;
51836;SDS011;38941;53.254;6.600;2023-02-11T06:26:19;26.98;;;8.23;;
51836;SDS011;38941;53.254;6.600;2023-02-11T06:28:22;23.17;;;8.07;;
51836;SDS011;38941;53.254;6.600;2023-02-11T06:30:22;18.40;;;7.70;;
51836;SDS011;38941;53.254;6.600;2023-02-11T06:32:23;20.20;;;8.00;;
51836;SDS011;38941;53.254;6.600;2023-02-11T06:34:25;21.95;;;7.55;;
51836;SDS011;38941;53.254;6.600;2023-02-11T06:36:26;21.65;;;6.72;;
51836;SDS011;38941;53.254;6.600;2023-02-11T06:38:27;23.05;;;8.10;;
51836;SDS011;38941;53.254;6.600;2023-02-11T06:40:27;20.75;;;9.20;;
51836;SDS011;38941;53.254;6.600;2023-02-11T06:42:28;25.35;;;8.52;;
51836;SDS011;38941;53.254;6.600;2023-02-11T06:44:29;19.77;;;8.13;;
51836;SDS011;38941;53.254;6.600;2023-02-11T06:46:29;26.65;;;8.65;;
51836;SDS011;38941;53.254;6.600;2023-02-11T06:48:30;18.08;;;7.65;;
51836;SDS011;38941;53.254;6.600;2023-02-11T06:50:31;23.00;;;8.07;;
51836;SDS011;38941;53.254;6.600;2023-02-11T06:52:32;20.80;;;8.57;;
51836;SDS011;38941;53.254;6.600;2023-02-11T06:54:33;22.23;;;8.85;;
51836;SDS011;38941;53.254;6.600;2023-02-11T06:56:33;17.17;;;7.32;;
51836;SDS011;38941;53.254;6.600;2023-02-11T06:58:36;21.83;;;8.90;;
51836;SDS011;38941;53.254;6.600;2023-02-11T07:00:38;20.80;;;7.05;;
51836;SDS011;38941;53.254;6.600;2023-02-11T07:02:39;23.45;;;7.68;;
51836;SDS011;38941;53.254;6.600;2023-02-11T07:04:41;19.10;;;7.55;;
51836;SDS011;38941;53.254;6.600;2023-02-11T07:06:43;19.08;;;7.78;;
51836;SDS011;38941;53.254;6.600;2023-02-11T07:08:44;16.25;;;7.00;;
51836;SDS011;38941;53.254;6.600;2023-02-11T07:10:47;22.52;;;7.70;;
51836;SDS011;38941;53.254;6.600;2023-02-11T07:12:47;24.83;;;7.90;;
51836;SDS011;38941;53.254;6.600;2023-02-11T07:14:48;19.42;;;8.63;;
51836;SDS011;38941;53.254;6.600;2023-02-11T07:16:49;21.92;;;7.80;;
51836;SDS011;38941;53.254;6.600;2023-02-11T07:18:49;20.75;;;8.15;;
51836;SDS011;38941;53.254;6.600;2023-02-11T07:20:50;22.13;;;7.97;;
51836;SDS011;38941;53.254;6.600;2023-02-11T07:22:51;18.80;;;8.93;;
51836;SDS011;38941;53.254;6.600;2023-02-11T07:24:51;18.05;;;6.97;;
51836;SDS011;38941;53.254;6.600;2023-02-11T07:26:52;20.50;;;7.60;;
51836;SDS011;38941;53.254;6.600;2023-02-11T07:28:53;22.60;;;8.23;;
51836;SDS011;38941;53.254;6.600;2023-02-11T07:30:54;21.75;;;8.93;;
51836;SDS011;38941;53.254;6.600;2023-02-11T07:32:56;21.20;;;7.57;;
51836;SDS011;38941;53.254;6.600;2023-02-11T07:34:56;21.50;;;8.10;;
51836;SDS011;38941;53.254;6.600;2023-02-11T07:36:57;16.42;;;7.13;;
51836;SDS011;38941;53.254;6.600;2023-02-11T07:38:58;20.23;;;8.05;;
51836;SDS011;38941;53.254;6.600;2023-02-11T07:41:00;21.17;;;8.13;;
51836;SDS011;38941;53.254;6.600;2023-02-11T07:43:03;25.65;;;7.78;;
51836;SDS011;38941;53.254;6.600;2023-02-11T07:45:04;22.27;;;6.93;;
51836;SDS011;38941;53.254;6.600;2023-02-11T07:47:05;15.98;;;7.32;;
51836;SDS011;38941;53.254;6.600;2023-02-11T07:49:07;18.92;;;6.28;;
51836;SDS011;38941;53.254;6.600;2023-02-11T07:51:12;16.67;;;7.22;;
51836;SDS011;38941;53.254;6.600;2023-02-11T07:53:14;19.65;;;6.75;;
51836;SDS011;38941;53.254;6.600;2023-02-11T07:55:15;21.50;;;7.82;;
51836;SDS011;38941;53.254;6.600;2023-02-11T07:57:16;20.65;;;7.22;;
51836;SDS011;38941;53.254;6.600;2023-02-11T07:59:16;22.92;;;7.20;;
51836;SDS011;38941;53.254;6.600;2023-02-11T08:01:22;18.40;;;7.32;;
51836;SDS011;38941;53.254;6.600;2023-02-11T08:03:26;17.45;;;7.43;;
51836;SDS011;38941;53.254;6.600;2023-02-11T08:05:28;18.50;;;7.32;;
51836;SDS011;38941;53.254;6.600;2023-02-11T08:07:39;20.90;;;7.28;;
51836;SDS011;38941;53.254;6.600;2023-02-11T08:09:40;14.80;;;7.05;;
51836;SDS011;38941;53.254;6.600;2023-02-11T08:11:41;15.38;;;7.25;;
51836;SDS011;38941;53.254;6.600;2023-02-11T08:13:43;19.50;;;6.40;;
51836;SDS011;38941;53.254;6.600;2023-02-11T08:15:50;23.60;;;6.95;;
51836;SDS011;38941;53.254;6.600;2023-02-11T08:17:50;18.95;;;8.38;;
51836;SDS011;38941;53.254;6.600;2023-02-11T08:19:51;18.45;;;6.22;;
51836;SDS011;38941;53.254;6.600;2023-02-11T08:21:55;17.10;;;6.80;;
51836;SDS011;38941;53.254;6.600;2023-02-11T08:23:56;18.08;;;6.30;;
51836;SDS011;38941;53.254;6.600;2023-02-11T08:26:01;20.20;;;6.90;;
51836;SDS011;38941;53.254;6.600;2023-02-11T08:28:06;17.67;;;6.05;;
51836;SDS011;38941;53.254;6.600;2023-02-11T08:30:08;15.65;;;6.38;;
51836;SDS011;38941;53.254;6.600;2023-02-11T08:32:10;22.38;;;6.85;;
51836;SDS011;38941;53.254;6.600;2023-02-11T08:34:11;20.40;;;7.00;;
51836;SDS011;38941;53.254;6.600;2023-02-11T08:36:19;12.90;;;6.10;;
51836;SDS011;38941;53.254;6.600;2023-02-11T08:38:23;18.30;;;6.65;;
51836;SDS011;38941;53.254;6.600;2023-02-11T08:40:23;15.82;;;7.03;;
51836;SDS011;38941;53.254;6.600;2023-02-11T08:42:25;21.08;;;6.63;;
51836;SDS011;38941;53.254;6.600;2023-02-11T08:44:26;19.55;;;6.90;;
51836;SDS011;38941;53.254;6.600;2023-02-11T08:46:27;23.35;;;6.47;;
51836;SDS011;38941;53.254;6.600;2023-02-11T08:48:27;19.23;;;6.45;;
51836;SDS011;38941;53.254;6.600;2023-02-11T08:50:30;18.05;;;6.50;;
51836;SDS011;38941;53.254;6.600;2023-02-11T08:52:31;15.63;;;5.78;;
51836;SDS011;38941;53.254;6.600;2023-02-11T08:54:32;18.83;;;6.13;;
51836;SDS011;38941;53.254;6.600;2023-02-11T08:56:35;15.25;;;5.85;;
51836;SDS011;38941;53.254;6.600;2023-02-11T08:58:36;18.17;;;6.85;;
51836;SDS011;38941;53.254;6.600;2023-02-11T09:00:39;13.13;;;5.78;;
51836;SDS011;38941;53.254;6.600;2023-02-11T09:02:39;14.27;;;5.78;;
51836;SDS011;38941;53.254;6.600;2023-02-11T09:04:40;16.33;;;5.65;;
51836;SDS011;38941;53.254;6.600;2023-02-11T09:06:41;16.45;;;6.30;;
51836;SDS011;38941;53.254;6.600;2023-02-11T09:08:44;20.73;;;6.05;;
51836;SDS011;38941;53.254;6.600;2023-02-11T09:10:51;16.77;;;6.38;;
51836;SDS011;38941;53.254;6.600;2023-02-11T09:12:57;18.27;;;5.90;;
51836;SDS011;38941;53.254;6.600;2023-02-11T09:14:58;17.98;;;6.25;;
51836;SDS011;38941;53.254;6.600;2023-02-11T09:16:59;17.00;;;6.15;;
51836;SDS011;38941;53.254;6.600;2023-02-11T09:19:03;17.95;;;5.70;;
51836;SDS011;38941;53.254;6.600;2023-02-11T09:21:05;19.95;;;5.63;;
51836;SDS011;38941;53.254;6.600;2023-02-11T09:23:09;12.88;;;5.78;;
51836;SDS011;38941;53.254;6.600;2023-02-11T09:25:11;15.00;;;5.40;;
51836;SDS011;38941;53.254;6.600;2023-02-11T09:27:12;15.43;;;5.80;;
51836;SDS011;38941;53.254;6.600;2023-02-11T09:29:12;13.85;;;4.95;;
51836;SDS011;38941;53.254;6.600;2023-02-11T09:31:20;15.75;;;6.05;;
51836;SDS011;38941;53.254;6.600;2023-02-11T09:33:22;10.98;;;5.53;;
51836;SDS011;38941;53.254;6.600;2023-02-11T09:35:23;13.05;;;4.53;;
51836;SDS011;38941;53.254;6.600;2023-02-11T09:37:25;19.70;;;5.38;;
51836;SDS011;38941;53.254;6.600;2023-02-11T09:39:28;21.67;;;5.85;;
51836;SDS011;38941;53.254;6.600;2023-02-11T09:41:34;13.70;;;4.55;;
51836;SDS011;38941;53.254;6.600;2023-02-11T09:43:55;14.32;;;4.68;;
51836;SDS011;38941;53.254;6.600;2023-02-11T09:45:59;15.95;;;4.75;;
51836;SDS011;38941;53.254;6.600;2023-02-11T09:48:01;13.55;;;4.22;;
51836;SDS011;38941;53.254;6.600;2023-02-11T09:52:24;16.40;;;4.65;;
51836;SDS011;38941;53.254;6.600;2023-02-11T09:54:33;14.77;;;4.40;;
51836;SDS011;38941;53.254;6.600;2023-02-11T09:56:51;14.85;;;4.40;;
51836;SDS011;38941;53.254;6.600;2023-02-11T09:58:54;16.30;;;4.47;;
51836;SDS011;38941;53.254;6.600;2023-02-11T10:01:03;13.95;;;3.92;;
51836;SDS011;38941;53.254;6.600;2023-02-11T10:10:58;15.75;;;4.05;;
51836;SDS011;38941;53.254;6.600;2023-02-11T10:22:13;19.17;;;4.70;;
51836;SDS011;38941;53.254;6.600;2023-02-11T10:24:18;14.23;;;5.15;;
51836;SDS011;38941;53.254;6.600;2023-02-11T10:26:21;15.52;;;4.45;;
51836;SDS011;38941;53.254;6.600;2023-02-11T10:28:23;12.00;;;3.60;;
51836;SDS011;38941;53.254;6.600;2023-02-11T10:30:36;15.82;;;4.13;;
51836;SDS011;38941;53.254;6.600;2023-02-11T10:32:52;21.58;;;4.45;;
51836;SDS011;38941;53.254;6.600;2023-02-11T10:35:00;15.77;;;5.15;;
51836;SDS011;38941;53.254;6.600;2023-02-11T10:37:10;14.00;;;3.88;;
51836;SDS011;38941;53.254;6.600;2023-02-11T10:41:16;11.00;;;3.00;;
51836;SDS011;38941;53.254;6.600;2023-02-11T10:43:25;13.87;;;3.43;;
51836;SDS011;38941;53.254;6.600;2023-02-11T10:47:39;15.23;;;3.80;;
51836;SDS011;38941;53.254;6.600;2023-02-11T10:49:42;14.55;;;3.85;;
51836;SDS011;38941;53.254;6.600;2023-02-11T10:51:44;16.48;;;4.30;;
51836;SDS011;38941;53.254;6.600;2023-02-11T10:53:46;22.60;;;3.88;;
51836;SDS011;38941;53.254;6.600;2023-02-11T10:55:53;12.88;;;3.40;;
51836;SDS011;38941;53.254;6.600;2023-02-11T10:57:59;12.02;;;3.88;;
51836;SDS011;38941;53.254;6.600;2023-02-11T11:02:22;10.57;;;2.63;;
51836;SDS011;38941;53.254;6.600;2023-02-11T11:04:36;18.77;;;3.28;;
51836;SDS011;38941;53.254;6.600;2023-02-11T11:06:39;15.48;;;2.40;;
51836;SDS011;38941;53.254;6.600;2023-02-11T11:10:48;15.48;;;2.97;;
51836;SDS011;38941;53.254;6.600;2023-02-11T11:13:03;14.18;;;3.40;;
51836;SDS011;38941;53.254;6.600;2023-02-11T11:15:13;16.05;;;2.83;;
51836;SDS011;38941;53.254;6.600;2023-02-11T11:17:28;13.38;;;2.92;;
51836;SDS011;38941;53.254;6.600;2023-02-11T11:19:30;15.93;;;2.40;;
51836;SDS011;38941;53.254;6.600;2023-02-11T11:23:40;20.40;;;3.13;;
51836;SDS011;38941;53.254;6.600;2023-02-11T11:26:08;13.20;;;3.03;;
51836;SDS011;38941;53.254;6.600;2023-02-11T11:28:21;13.13;;;2.58;;
51836;SDS011;38941;53.254;6.600;2023-02-11T11:30:26;18.15;;;3.85;;
51836;SDS011;38941;53.254;6.600;2023-02-11T11:32:33;15.88;;;3.75;;
51836;SDS011;38941;53.254;6.600;2023-02-11T11:34:37;10.30;;;2.17;;
51836;SDS011;38941;53.254;6.600;2023-02-11T11:36:42;10.88;;;2.20;;
51836;SDS011;38941;53.254;6.600;2023-02-11T11:38:52;13.15;;;2.72;;
51836;SDS011;38941;53.254;6.600;2023-02-11T11:43:19;13.25;;;2.42;;
51836;SDS011;38941;53.254;6.600;2023-02-11T11:45:24;7.28;;;2.15;;
51836;SDS011;38941;53.254;6.600;2023-02-11T11:47:28;9.18;;;2.63;;
51836;SDS011;38941;53.254;6.600;2023-02-11T11:54:11;17.50;;;3.95;;
51836;SDS011;38941;53.254;6.600;2023-02-11T11:58:26;10.65;;;2.17;;
51836;SDS011;38941;53.254;6.600;2023-02-11T12:05:45;14.27;;;2.20;;
51836;SDS011;38941;53.254;6.600;2023-02-11T12:14:58;12.35;;;1.55;;
51836;SDS011;38941;53.254;6.600;2023-02-11T12:17:23;13.23;;;2.45;;
51836;SDS011;38941;53.254;6.600;2023-02-11T12:19:38;14.52;;;2.55;;
51836;SDS011;38941;53.254;6.600;2023-02-11T12:21:47;7.88;;;1.50;;
51836;SDS011;38941;53.254;6.600;2023-02-11T12:31:07;9.80;;;1.98;;
51836;SDS011;38941;53.254;6.600;2023-02-11T12:33:30;16.88;;;3.03;;
51836;SDS011;38941;53.254;6.600;2023-02-11T12:36:54;5.15;;;1.45;;
51836;SDS011;38941;53.254;6.600;2023-02-11T12:38:36;15.55;;;1.88;;
51836;SDS011;38941;53.254;6.600;2023-02-11T12:40:50;8.35;;;1.83;;
51836;SDS011;38941;53.254;6.600;2023-02-11T12:43:19;11.30;;;1.60;;
51836;SDS011;38941;53.254;6.600;2023-02-11T12:50:16;11.68;;;2.33;;
51836;SDS011;38941;53.254;6.600;2023-02-11T12:57:45;15.13;;;1.95;;
51836;SDS011;38941;53.254;6.600;2023-02-11T13:01:44;12.20;;;2.58;;
51836;SDS011;38941;53.254;6.600;2023-02-11T13:03:48;11.18;;;2.33;;
51836;SDS011;38941;53.254;6.600;2023-02-11T13:06:06;12.05;;;2.85;;
51836;SDS011;38941;53.254;6.600;2023-02-11T13:10:40;7.80;;;1.58;;
51836;SDS011;38941;53.254;6.600;2023-02-11T13:12:41;15.73;;;2.47;;
51836;SDS011;38941;53.254;6.600;2023-02-11T13:15:05;9.65;;;1.60;;
51836;SDS011;38941;53.254;6.600;2023-02-11T13:17:13;9.75;;;1.65;;
51836;SDS011;38941;53.254;6.600;2023-02-11T13:21:51;16.52;;;2.13;;
51836;SDS011;38941;53.254;6.600;2023-02-11T13:26:17;9.65;;;1.67;;
51836;SDS011;38941;53.254;6.600;2023-02-11T13:30:47;16.75;;;2.00;;
51836;SDS011;38941;53.254;6.600;2023-02-11T13:34:58;9.20;;;1.70;;
51836;SDS011;38941;53.254;6.600;2023-02-11T13:37:00;12.50;;;2.45;;
51836;SDS011;38941;53.254;6.600;2023-02-11T13:39:03;12.93;;;2.40;;
51836;SDS011;38941;53.254;6.600;2023-02-11T13:41:09;18.00;;;2.67;;
51836;SDS011;38941;53.254;6.600;2023-02-11T13:43:31;15.63;;;1.90;;
51836;SDS011;38941;53.254;6.600;2023-02-11T13:45:45;10.40;;;2.53;;
51836;SDS011;38941;53.254;6.600;2023-02-11T13:47:47;19.50;;;3.10;;
51836;SDS011;38941;53.254;6.600;2023-02-11T13:49:55;16.92;;;2.63;;
51836;SDS011;38941;53.254;6.600;2023-02-11T13:51:57;17.73;;;2.42;;
51836;SDS011;38941;53.254;6.600;2023-02-11T13:53:59;8.48;;;1.70;;
51836;SDS011;38941;53.254;6.600;2023-02-11T13:56:07;16.35;;;1.98;;
51836;SDS011;38941;53.254;6.600;2023-02-11T14:02:33;9.10;;;2.38;;
51836;SDS011;38941;53.254;6.600;2023-02-11T14:09:46;11.18;;;1.42;;
51836;SDS011;38941;53.254;6.600;2023-02-11T14:11:48;9.73;;;1.67;;
51836;SDS011;38941;53.254;6.600;2023-02-11T14:20:48;10.00;;;2.67;;
51836;SDS011;38941;53.254;6.600;2023-02-11T14:22:49;13.60;;;1.98;;
51836;SDS011;38941;53.254;6.600;2023-02-11T14:25:01;13.60;;;2.28;;
51836;SDS011;38941;53.254;6.600;2023-02-11T14:27:08;14.43;;;2.22;;
51836;SDS011;38941;53.254;6.600;2023-02-11T14:36:01;13.43;;;2.10;;